createdAt,value
2018-04-19T00:01:54.922Z,8.63
2018-04-19T00:04:22.379Z,7.13
2018-04-19T00:06:49.831Z,6.97
2018-04-19T00:09:17.271Z,7.80
2018-04-19T00:11:44.722Z,8.57
2018-04-19T00:14:12.164Z,7.73
2018-04-19T00:16:40.391Z,7.23
2018-04-19T00:19:07.822Z,7.87
2018-04-19T00:21:35.263Z,9.40
2018-04-19T00:24:02.722Z,7.90
2018-04-19T00:26:30.179Z,9.47
2018-04-19T00:28:57.641Z,10.03
2018-04-19T00:31:25.079Z,8.63
2018-04-19T00:33:53.299Z,11.60
2018-04-19T00:36:20.734Z,8.57
2018-04-19T00:38:48.189Z,8.33
2018-04-19T00:41:15.625Z,11.13
2018-04-19T00:43:43.837Z,8.33
2018-04-19T00:46:11.277Z,10.33
2018-04-19T00:48:38.744Z,9.03
2018-04-19T00:51:06.205Z,8.13
2018-04-19T00:53:33.663Z,9.73
2018-04-19T00:56:01.123Z,8.50
2018-04-19T00:58:28.568Z,7.73
2018-04-19T01:00:56.022Z,7.00
2018-04-19T01:03:24.218Z,7.23
2018-04-19T01:05:51.668Z,8.30
2018-04-19T01:08:19.117Z,8.23
2018-04-19T01:10:46.561Z,10.07
2018-04-19T01:13:14.051Z,8.83
2018-04-19T01:15:41.502Z,10.00
2018-04-19T01:18:08.956Z,9.77
2018-04-19T01:20:36.399Z,8.90
2018-04-19T01:23:03.867Z,10.87
2018-04-19T01:25:31.307Z,11.70
2018-04-19T01:27:58.758Z,9.30
2018-04-19T01:30:26.962Z,8.70
2018-04-19T01:32:54.415Z,8.00
2018-04-19T01:35:33.695Z,11.70
2018-04-19T01:38:01.149Z,9.27
2018-04-19T01:40:28.584Z,8.93
2018-04-19T01:42:56.046Z,8.33
2018-04-19T01:45:23.485Z,9.10
2018-04-19T01:47:50.933Z,11.50
2018-04-19T01:50:19.134Z,8.87
2018-04-19T01:52:46.591Z,10.20
2018-04-19T01:55:14.029Z,9.33
2018-04-19T01:57:41.487Z,9.20
2018-04-19T02:00:08.968Z,7.90
2018-04-19T02:02:36.398Z,8.47
2018-04-19T02:05:03.857Z,7.73
2018-04-19T02:07:37.263Z,7.40
2018-04-19T02:10:04.704Z,9.43
2018-04-19T02:12:32.154Z,9.10
2018-04-19T02:14:59.594Z,9.00
2018-04-19T02:17:27.803Z,9.63
2018-04-19T02:19:55.260Z,12.10
2018-04-19T02:22:22.711Z,9.70
2018-04-19T02:24:50.176Z,11.83
2018-04-19T02:27:17.622Z,10.73
2018-04-19T02:29:45.082Z,12.10
2018-04-19T02:32:12.530Z,10.53
2018-04-19T02:34:39.990Z,10.50
2018-04-19T02:37:07.430Z,10.63
2018-04-19T02:39:34.962Z,11.00
2018-04-19T02:42:02.411Z,10.53
2018-04-19T02:44:29.883Z,11.50
2018-04-19T02:46:58.103Z,12.10
2018-04-19T02:49:25.563Z,10.33
2018-04-19T02:51:53.002Z,11.50
2018-04-19T02:54:20.475Z,9.80
2018-04-19T02:56:48.700Z,12.67
2018-04-19T02:59:16.159Z,13.43
2018-04-19T03:01:44.379Z,13.20
2018-04-19T03:04:12.626Z,12.70
2018-04-19T03:06:40.847Z,10.93
2018-04-19T03:09:08.327Z,11.57
2018-04-19T03:11:35.783Z,11.80
2018-04-19T03:14:03.239Z,13.10
2018-04-19T03:16:30.699Z,11.40
2018-04-19T03:18:58.185Z,11.53
2018-04-19T03:21:26.390Z,13.83
2018-04-19T03:23:53.863Z,13.63
2018-04-19T03:26:21.306Z,16.93
2018-04-19T03:28:48.798Z,11.67
2018-04-19T03:31:16.234Z,11.20
2018-04-19T03:33:43.702Z,11.20
2018-04-19T03:36:11.378Z,10.67
2018-04-19T03:38:38.835Z,13.50
2018-04-19T03:41:06.300Z,11.30
2018-04-19T03:43:33.744Z,11.23
2018-04-19T03:46:01.210Z,11.70
2018-04-19T03:48:28.669Z,11.43
2018-04-19T03:50:56.118Z,11.47
2018-04-19T03:53:23.578Z,11.50
2018-04-19T03:55:51.029Z,12.37
2018-04-19T03:58:18.486Z,13.17
2018-04-19T04:00:46.670Z,12.87
2018-04-19T04:03:14.122Z,14.10
2018-04-19T04:05:41.582Z,14.60
2018-04-19T04:08:09.037Z,14.60
2018-04-19T04:10:37.295Z,12.27
2018-04-19T04:13:04.760Z,14.27
2018-04-19T04:15:32.210Z,13.90
2018-04-19T04:21:14.192Z,11.77
2018-04-19T04:23:51.486Z,13.93
2018-04-19T04:26:18.953Z,14.90
2018-04-19T04:28:46.402Z,12.00
2018-04-19T04:31:13.925Z,13.30
2018-04-19T04:33:41.307Z,15.40
2018-04-19T04:36:08.757Z,11.43
2018-04-19T04:38:36.969Z,14.50
2018-04-19T04:41:04.442Z,14.93
2018-04-19T04:43:31.910Z,13.53
2018-04-19T04:45:59.379Z,12.23
2018-04-19T04:48:26.846Z,12.50
2018-04-19T04:50:54.302Z,12.70
2018-04-19T04:53:21.773Z,12.97
2018-04-19T04:55:49.203Z,13.70
2018-04-19T04:58:16.662Z,12.33
2018-04-19T05:00:44.118Z,13.03
2018-04-19T05:03:11.593Z,14.27
2018-04-19T05:05:39.864Z,12.40
2018-04-19T05:08:07.290Z,16.67
2018-04-19T05:10:34.747Z,14.87
2018-04-19T05:13:02.206Z,17.13
2018-04-19T05:15:29.659Z,12.23
2018-04-19T05:17:57.111Z,13.87
2018-04-19T05:20:24.625Z,13.73
2018-04-19T05:22:52.091Z,14.53
2018-04-19T05:25:19.535Z,21.50
2018-04-19T05:27:47.770Z,15.07
2018-04-19T05:30:15.215Z,15.07
2018-04-19T05:32:42.682Z,18.57
2018-04-19T05:35:10.159Z,21.43
2018-04-19T05:37:37.602Z,26.63
2018-04-19T05:40:05.052Z,23.47
2018-04-19T05:42:32.575Z,22.87
2018-04-19T05:45:00.026Z,22.40
2018-04-19T05:47:27.493Z,21.43
2018-04-19T05:49:54.935Z,28.13
2018-04-19T05:52:22.395Z,22.40
2018-04-19T05:54:49.845Z,15.23
2018-04-19T05:57:17.307Z,13.97
2018-04-19T05:59:44.745Z,13.57
2018-04-19T06:02:12.970Z,16.90
2018-04-19T06:04:40.401Z,16.77
2018-04-19T06:07:07.853Z,11.57
2018-04-19T06:09:35.302Z,16.70
2018-04-19T06:12:03.526Z,13.07
2018-04-19T06:14:30.983Z,11.83
2018-04-19T06:16:58.441Z,20.10
2018-04-19T06:19:25.903Z,24.93
2018-04-19T06:21:53.361Z,15.93
2018-04-19T06:24:20.814Z,23.10
2018-04-19T06:26:48.278Z,21.20
2018-04-19T06:29:15.721Z,18.70
2018-04-19T06:31:43.178Z,20.80
2018-04-19T06:34:10.645Z,18.73
2018-04-19T06:36:38.146Z,14.03
2018-04-19T06:39:06.380Z,19.37
2018-04-19T06:41:33.935Z,18.83
2018-04-19T06:44:01.338Z,19.57
2018-04-19T06:46:29.566Z,19.63
2018-04-19T06:48:57.018Z,17.47
2018-04-19T06:51:24.469Z,23.90
2018-04-19T06:53:51.906Z,26.40
2018-04-19T06:56:19.392Z,22.00
2018-04-19T06:58:46.833Z,24.33
2018-04-19T07:01:14.282Z,17.10
2018-04-19T07:03:41.717Z,14.67
2018-04-19T07:06:09.182Z,17.77
2018-04-19T07:08:36.638Z,16.60
2018-04-19T07:11:04.101Z,17.60
2018-04-19T07:13:31.553Z,16.50
2018-04-19T07:15:58.998Z,16.13
2018-04-19T07:18:27.216Z,11.90
2018-04-19T07:20:54.690Z,14.63
2018-04-19T07:23:22.181Z,13.93
2018-04-19T07:25:50.403Z,13.13
2018-04-19T07:28:17.856Z,13.23
2018-04-19T07:30:45.310Z,16.17
2018-04-19T07:33:12.767Z,12.30
2018-04-19T07:35:40.195Z,14.17
2018-04-19T07:38:07.655Z,12.13
2018-04-19T07:40:35.105Z,13.40
2018-04-19T07:43:03.326Z,11.43
2018-04-19T07:45:30.786Z,15.60
2018-04-19T07:47:58.241Z,11.87
2018-04-19T07:50:25.686Z,12.87
2018-04-19T07:52:53.157Z,10.93
2018-04-19T07:55:20.597Z,11.63
2018-04-19T07:57:48.058Z,10.70
2018-04-19T08:00:15.529Z,10.60
2018-04-19T08:02:42.978Z,10.77
2018-04-19T08:05:10.435Z,13.77
2018-04-19T08:07:37.902Z,12.13
2018-04-19T08:10:05.363Z,12.20
2018-04-19T08:12:32.827Z,12.47
2018-04-19T08:15:00.302Z,9.53
2018-04-19T08:17:27.756Z,10.80
2018-04-19T08:19:55.209Z,10.47
2018-04-19T08:22:22.665Z,10.00
2018-04-19T08:24:50.095Z,8.77
2018-04-19T08:27:17.579Z,8.07
2018-04-19T08:29:45.046Z,9.50
2018-04-19T08:32:12.502Z,9.40
2018-04-19T08:34:39.946Z,15.17
2018-04-19T08:37:07.431Z,10.33
2018-04-19T08:39:35.657Z,8.23
2018-04-19T08:42:03.127Z,9.10
2018-04-19T08:44:30.609Z,8.80
2018-04-19T08:46:58.038Z,9.13
2018-04-19T08:49:25.544Z,7.63
2018-04-19T08:51:52.961Z,9.70
2018-04-19T08:54:20.421Z,5.80
2018-04-19T08:56:47.862Z,8.23
2018-04-19T08:59:15.331Z,7.93
2018-04-19T09:01:42.774Z,6.33
2018-04-19T09:04:10.226Z,8.17
2018-04-19T09:06:37.674Z,5.10
2018-04-19T09:09:05.962Z,7.70
2018-04-19T09:11:33.425Z,5.13
2018-04-19T09:14:00.910Z,6.17
2018-04-19T09:16:28.355Z,5.50
2018-04-19T09:18:55.888Z,6.17
2018-04-19T09:21:23.352Z,4.13
2018-04-19T09:23:50.810Z,6.80
2018-04-19T09:26:18.263Z,7.10
2018-04-19T09:28:45.734Z,4.93
2018-04-19T09:31:13.273Z,6.10
2018-04-19T09:33:40.714Z,6.23
2018-04-19T09:36:08.162Z,6.73
2018-04-19T09:38:35.608Z,4.33
2018-04-19T09:41:03.837Z,4.30
2018-04-19T09:43:31.306Z,3.00
2018-04-19T09:45:58.766Z,6.37
2018-04-19T09:48:26.222Z,6.97
2018-04-19T09:50:53.678Z,8.70
2018-04-19T09:53:21.150Z,6.00
2018-04-19T09:55:48.610Z,5.50
2018-04-19T09:58:16.057Z,5.03
2018-04-19T10:00:45.440Z,6.17
2018-04-19T10:03:18.858Z,4.03
2018-04-19T10:05:47.089Z,6.00
2018-04-19T10:08:14.551Z,2.60
2018-04-19T10:10:42.006Z,3.07
2018-04-19T10:13:09.463Z,6.13
2018-04-19T10:15:36.909Z,3.37
2018-04-19T10:18:04.351Z,3.13
2018-04-19T10:20:32.586Z,2.97
2018-04-19T10:23:00.030Z,3.73
2018-04-19T10:25:27.514Z,3.90
2018-04-19T10:27:54.981Z,4.63
2018-04-19T10:30:22.451Z,4.37
2018-04-19T10:32:50.653Z,6.60
2018-04-19T10:35:18.113Z,4.70
2018-04-19T10:37:45.603Z,3.80
2018-04-19T10:40:13.075Z,3.90
2018-04-19T10:42:40.510Z,3.57
2018-04-19T10:45:07.965Z,7.00
2018-04-19T10:47:35.403Z,6.33
2018-04-19T10:50:02.879Z,4.07
2018-04-19T10:52:30.323Z,4.47
2018-04-19T10:54:57.782Z,6.00
2018-04-19T10:57:25.231Z,3.10
2018-04-19T10:59:52.684Z,3.67
2018-04-19T11:02:20.150Z,4.07
2018-04-19T11:04:47.599Z,7.10
2018-04-19T11:07:15.052Z,10.83
2018-04-19T11:09:42.555Z,8.77
2018-04-19T11:12:09.990Z,10.53
2018-04-19T11:14:46.359Z,5.13
2018-04-19T11:17:13.798Z,6.23
2018-04-19T11:19:41.254Z,3.50
2018-04-19T11:22:08.715Z,3.73
2018-04-19T11:24:36.171Z,5.43
2018-04-19T11:27:03.627Z,7.10
2018-04-19T11:29:34.881Z,4.87
2018-04-19T11:32:02.326Z,5.70
2018-04-19T11:34:29.781Z,5.93
2018-04-19T11:36:57.237Z,7.43
2018-04-19T11:39:24.695Z,8.13
2018-04-19T11:41:52.121Z,5.00
2018-04-19T11:44:19.565Z,7.77
2018-04-19T11:46:47.818Z,6.80
2018-04-19T11:49:16.018Z,5.73
2018-04-19T11:51:44.335Z,6.90
2018-04-19T11:54:11.864Z,7.10
2018-04-19T11:56:40.178Z,6.70
2018-04-19T11:59:07.680Z,6.27
2018-04-19T12:07:27.157Z,6.27
2018-04-19T12:09:54.646Z,7.50
2018-04-19T12:12:22.929Z,5.20
2018-04-19T12:14:51.169Z,5.10
2018-04-19T12:17:18.626Z,5.80
2018-04-19T12:19:46.093Z,7.70
2018-04-19T12:22:13.539Z,7.50
2018-04-19T12:24:41.000Z,5.30
2018-04-19T12:27:08.469Z,8.03
2018-04-19T12:29:35.931Z,11.50
2018-04-19T12:32:03.395Z,12.57
2018-04-19T12:34:30.850Z,8.93
2018-04-19T12:36:58.302Z,6.30
2018-04-19T12:39:25.754Z,6.40
2018-04-19T12:41:53.208Z,6.87
2018-04-19T12:44:20.648Z,7.17
2018-04-19T12:46:48.109Z,11.03
2018-04-19T12:49:15.593Z,9.60
2018-04-19T12:51:43.118Z,6.63
2018-04-19T12:54:10.595Z,10.60
2018-04-19T12:56:38.054Z,7.83
2018-04-19T12:59:05.512Z,9.93
2018-04-19T13:01:32.975Z,7.00
2018-04-19T13:04:00.441Z,7.57
2018-04-19T13:06:28.184Z,7.03
2018-04-19T13:08:55.610Z,7.43
2018-04-19T13:11:23.118Z,8.93
2018-04-19T13:13:50.568Z,8.90
2018-04-19T13:16:18.045Z,7.60
2018-04-19T13:18:45.493Z,11.27
2018-04-19T13:21:12.954Z,9.73
2018-04-19T13:23:40.401Z,9.47
2018-04-19T13:26:07.852Z,9.27
2018-04-19T13:28:35.314Z,9.73
2018-04-19T13:31:02.766Z,8.47
2018-04-19T13:33:30.290Z,7.47
2018-04-19T13:35:57.693Z,7.73
2018-04-19T13:38:25.175Z,6.70
2018-04-19T13:40:53.386Z,8.77
2018-04-19T13:43:20.844Z,8.57
2018-04-19T13:45:48.282Z,6.63
2018-04-19T13:48:15.763Z,9.73
2018-04-19T13:50:43.239Z,7.63
2018-04-19T13:53:10.696Z,8.73
2018-04-19T13:55:38.146Z,10.27
2018-04-19T13:58:05.627Z,6.90
2018-04-19T14:00:33.090Z,9.57
2018-04-19T14:03:00.540Z,9.13
2018-04-19T14:05:28.025Z,8.10
2018-04-19T14:07:56.254Z,7.17
2018-04-19T14:10:23.699Z,7.87
2018-04-19T14:12:51.150Z,7.67
2018-04-19T14:15:18.619Z,7.27
2018-04-19T14:17:46.090Z,6.70
2018-04-19T14:20:13.561Z,11.57
2018-04-19T14:22:41.025Z,11.70
2018-04-19T14:25:08.572Z,6.20
2018-04-19T14:27:36.013Z,7.30
2018-04-19T14:30:03.466Z,7.20
2018-04-19T14:32:30.949Z,6.13
2018-04-19T14:34:58.430Z,7.60
2018-04-19T14:37:26.666Z,6.90
2018-04-19T14:39:54.159Z,6.90
2018-04-19T14:42:22.340Z,7.27
2018-04-19T14:44:50.565Z,7.07
2018-04-19T14:47:18.171Z,6.83
2018-04-19T14:49:46.385Z,6.53
2018-04-19T14:52:14.595Z,8.50
2018-04-19T14:54:42.102Z,5.67
2018-04-19T14:57:09.560Z,7.57
2018-04-19T14:59:37.041Z,7.30
2018-04-19T15:02:04.497Z,5.33
2018-04-19T15:04:31.944Z,8.30
2018-04-19T15:06:59.436Z,8.33
2018-04-19T15:09:26.906Z,4.57
2018-04-19T15:11:54.351Z,8.80
2018-04-19T15:14:21.846Z,8.00
2018-04-19T15:16:50.055Z,6.50
2018-04-19T15:19:17.521Z,6.70
2018-04-19T15:21:44.952Z,5.97
2018-04-19T15:24:12.410Z,8.00
2018-04-19T15:26:39.856Z,6.83
2018-04-19T15:29:07.306Z,6.23
2018-04-19T15:31:35.543Z,5.53
2018-04-19T15:34:02.977Z,7.23
2018-04-19T15:36:30.422Z,7.40
2018-04-19T15:38:57.878Z,9.23
2018-04-19T15:41:25.337Z,7.67
2018-04-19T15:43:52.853Z,6.60
2018-04-19T15:46:20.250Z,8.67
2018-04-19T15:48:47.707Z,8.97
2018-04-19T15:51:15.151Z,7.20
2018-04-19T15:53:42.623Z,8.00
2018-04-19T15:56:10.061Z,7.17
2018-04-19T15:58:37.516Z,8.57
2018-04-19T16:01:05.716Z,5.63
2018-04-19T16:03:33.156Z,7.20
2018-04-19T16:06:00.600Z,8.80
2018-04-19T16:08:28.053Z,6.17
2018-04-19T16:10:56.269Z,8.20
2018-04-19T16:13:23.733Z,8.03
2018-04-19T16:15:51.179Z,7.50
2018-04-19T16:18:18.621Z,6.63
2018-04-19T16:20:46.079Z,7.77
2018-04-19T16:23:13.526Z,14.57
2018-04-19T16:25:41.726Z,7.37
2018-04-19T16:28:09.162Z,7.73
2018-04-19T16:30:36.632Z,11.00
2018-04-19T16:33:04.075Z,8.10
2018-04-19T16:35:31.555Z,6.10
2018-04-19T16:37:58.990Z,6.47
2018-04-19T16:40:26.464Z,5.93
2018-04-19T16:42:53.923Z,5.10
2018-04-19T16:45:21.379Z,6.67
2018-04-19T16:47:48.812Z,5.97
2018-04-19T16:50:16.342Z,5.77
2018-04-19T16:52:43.729Z,5.70
2018-04-19T16:55:11.182Z,5.30
2018-04-19T16:57:38.622Z,7.83
2018-04-19T17:00:06.834Z,5.70
2018-04-19T17:02:34.273Z,6.80
2018-04-19T17:05:01.757Z,6.90
2018-04-19T17:07:29.227Z,5.50
2018-04-19T17:09:56.762Z,6.40
2018-04-19T17:12:24.226Z,5.47
2018-04-19T17:14:51.697Z,7.57
2018-04-19T17:17:19.203Z,6.53
2018-04-19T17:19:47.429Z,6.33
2018-04-19T17:22:14.914Z,8.20
2018-04-19T17:24:42.359Z,5.40
2018-04-19T17:27:09.826Z,7.00
2018-04-19T17:29:37.283Z,7.10
2018-04-19T17:32:04.761Z,5.37
2018-04-19T17:34:32.271Z,5.30
2018-04-19T17:37:00.458Z,8.17
2018-04-19T17:39:27.949Z,6.87
2018-04-19T17:41:55.431Z,5.67
2018-04-19T17:44:22.907Z,8.40
2018-04-19T17:46:50.382Z,10.83
2018-04-19T17:49:17.873Z,12.23
2018-04-19T17:51:45.346Z,7.40
2018-04-19T17:54:13.572Z,6.60
2018-04-19T17:56:41.067Z,12.43
2018-04-19T17:59:08.530Z,11.17
2018-04-19T18:01:36.768Z,12.10
2018-04-19T18:04:04.240Z,13.83
2018-04-19T18:06:31.698Z,13.93
2018-04-19T18:08:59.181Z,13.87
2018-04-19T18:11:27.416Z,17.07
2018-04-19T18:13:54.911Z,12.90
2018-04-19T18:16:23.189Z,15.70
2018-04-19T18:18:50.652Z,13.43
2018-04-19T18:21:19.133Z,13.63
2018-04-19T18:23:47.405Z,16.43
2018-04-19T18:26:14.903Z,12.30
2018-04-19T18:28:42.365Z,11.13
2018-04-19T18:31:09.850Z,16.63
2018-04-19T18:33:37.312Z,17.07
2018-04-19T18:36:04.769Z,13.47
2018-04-19T18:38:32.278Z,12.93
2018-04-19T18:40:59.748Z,13.70
2018-04-19T18:43:27.226Z,19.90
2018-04-19T18:45:54.677Z,20.17
2018-04-19T18:48:22.159Z,14.97
2018-04-19T18:50:49.642Z,13.30
2018-04-19T18:53:17.914Z,25.40
2018-04-19T18:55:46.146Z,13.23
2018-04-19T18:58:13.661Z,24.50
2018-04-19T19:00:41.123Z,15.67
2018-04-19T19:03:08.617Z,15.00
2018-04-19T19:05:36.068Z,22.80
2018-04-19T19:08:03.548Z,18.90
2018-04-19T19:10:31.015Z,12.97
2018-04-19T19:12:58.506Z,14.53
2018-04-19T19:18:52.359Z,26.50
2018-04-19T19:21:19.801Z,21.87
2018-04-19T19:23:47.255Z,20.83
2018-04-19T19:26:14.702Z,14.83
2018-04-19T19:28:42.146Z,12.30
2018-04-19T19:31:09.601Z,11.77
2018-04-19T19:33:37.066Z,13.27
2018-04-19T19:36:04.516Z,17.80
2018-04-19T19:38:31.957Z,11.53
2018-04-19T19:41:00.171Z,12.30
2018-04-19T19:43:27.621Z,10.70
2018-04-19T19:45:55.062Z,13.00
2018-04-19T19:48:22.517Z,9.67
2018-04-19T19:50:49.951Z,10.23
2018-04-19T19:53:18.168Z,12.47
2018-04-19T19:55:45.605Z,18.27
2018-04-19T19:58:13.064Z,17.27
2018-04-19T20:00:40.513Z,12.67
2018-04-19T20:03:07.978Z,13.43
2018-04-19T20:05:35.426Z,12.20
2018-04-19T20:08:02.885Z,17.97
2018-04-19T20:10:31.085Z,13.17
2018-04-19T20:12:58.541Z,24.83
2018-04-19T20:15:25.982Z,17.10
2018-04-19T20:17:53.430Z,12.60
2018-04-19T20:20:21.630Z,25.37
2018-04-19T20:22:49.104Z,12.43
2018-04-19T20:25:16.573Z,17.17
2018-04-19T20:27:44.031Z,14.00
2018-04-19T20:30:11.465Z,9.93
2018-04-19T20:32:38.945Z,14.50
2018-04-19T20:35:06.407Z,14.10
2018-04-19T20:37:33.878Z,16.87
2018-04-19T20:40:01.335Z,11.13
2018-04-19T20:42:28.794Z,11.57
2018-04-19T20:44:56.248Z,11.87
2018-04-19T20:47:23.724Z,8.73
2018-04-19T20:49:51.938Z,12.07
2018-04-19T20:52:19.377Z,10.33
2018-04-19T20:54:46.829Z,8.60
2018-04-19T20:57:14.278Z,6.70
2018-04-19T20:59:42.507Z,11.07
2018-04-19T21:02:10.061Z,9.57
2018-04-19T21:04:37.415Z,9.57
2018-04-19T21:07:04.872Z,12.30
2018-04-19T21:09:32.330Z,9.23
2018-04-19T21:11:59.795Z,7.83
2018-04-19T21:14:27.314Z,11.57
2018-04-19T21:16:55.522Z,13.83
2018-04-19T21:19:23.033Z,10.90
2018-04-19T21:21:50.483Z,10.20
2018-04-19T21:24:17.978Z,11.53
2018-04-19T21:26:45.445Z,9.87
2018-04-19T21:29:12.954Z,11.43
2018-04-19T21:31:41.179Z,10.30
2018-04-19T21:34:08.675Z,11.33
2018-04-19T21:36:36.137Z,11.43
2018-04-19T21:39:04.375Z,11.73
2018-04-19T21:41:31.859Z,10.23
2018-04-19T21:43:59.340Z,11.57
2018-04-19T21:46:27.584Z,12.27
2018-04-19T21:48:55.082Z,14.67
2018-04-19T21:51:22.557Z,12.50
2018-04-19T21:53:50.040Z,10.27
2018-04-19T21:56:17.508Z,9.53
2018-04-19T21:58:45.003Z,9.23
2018-04-19T22:01:13.279Z,6.90
2018-04-19T22:03:41.522Z,8.87
2018-04-19T22:06:08.992Z,5.33
2018-04-19T22:08:36.470Z,11.87
2018-04-19T22:11:03.949Z,9.00
2018-04-19T22:13:31.406Z,8.57
2018-04-19T22:15:58.883Z,8.70
2018-04-19T22:18:26.348Z,6.70
2018-04-19T22:20:53.822Z,8.20
2018-04-19T22:23:21.325Z,7.90
2018-04-19T22:25:49.578Z,7.43
2018-04-19T22:28:17.105Z,7.03
2018-04-19T22:30:44.579Z,9.23
2018-04-19T22:33:12.061Z,10.23
2018-04-19T22:35:40.298Z,8.30
2018-04-19T22:38:07.755Z,9.67
2018-04-19T22:40:35.246Z,8.60
2018-04-19T22:43:02.703Z,8.07
2018-04-19T22:45:30.186Z,8.67
2018-04-19T22:47:57.667Z,8.03
2018-04-19T22:50:25.171Z,7.67
2018-04-19T22:52:52.640Z,11.90
2018-04-19T22:55:20.888Z,11.40
2018-04-19T22:57:48.365Z,9.53
2018-04-19T23:00:16.721Z,9.37
2018-04-19T23:02:44.211Z,13.13
2018-04-19T23:05:13.384Z,7.17
2018-04-19T23:07:40.850Z,7.43
2018-04-19T23:10:08.314Z,9.60
2018-04-19T23:12:35.788Z,7.60
2018-04-19T23:15:04.049Z,8.83
2018-04-19T23:17:31.552Z,9.60
2018-04-19T23:19:59.770Z,6.73
2018-04-19T23:22:34.002Z,7.93
2018-04-19T23:25:02.248Z,9.23
2018-04-19T23:27:29.731Z,10.37
2018-04-19T23:29:57.205Z,11.97
2018-04-19T23:32:25.467Z,11.00
2018-04-19T23:34:52.939Z,12.13
2018-04-19T23:37:21.186Z,10.93
2018-04-19T23:39:48.727Z,11.33
2018-04-19T23:42:16.136Z,9.93
2018-04-19T23:44:44.358Z,7.90
2018-04-19T23:47:11.821Z,9.53
2018-04-19T23:49:39.277Z,7.80
2018-04-19T23:52:06.742Z,8.30
2018-04-19T23:54:34.193Z,8.70
2018-04-19T23:57:01.666Z,6.33
2018-04-19T23:59:29.121Z,6.33
